Tampa, Florida
Traffic Map
Current Weather Conditions
Tampa, Florida
Few Clouds
Few Clouds
56°
Feels Like: 56°
Wind Chill: 56° Ceiling: Unl
Heat Index: 56° Visibility: 10mi
Dew Point: 34° Wind: 14mph
Humidity: 44% Direction: 290° (WNW)
Pressure: 30.22in Gusts: 0mph
Raw Report DataKTPA 101953Z 29012KT 10SM FEW060 FEW240 13/01 A3022 RMK AO2 SLP232 T01330011
Traffic Incident Summary
Active as of:
Severity:
Category:
InformationThere was an issue retrieving the traffic information for this location. Please try a different location or try again shortly.
Advertisements
Track Severe Weather on mobile